< < Back
Terminal Aerodrome Forecast


Current Version              Previous Versions:   1  2  3  4  5  6  7  8  9  

Terminal Aerodrome Forecast

568
FTUS42 KCHS 311309 AAA
TAFSAV
TAF AMD
KSAV 311309Z 3113/0112 33006KT 6SM BR BKN005
     FM311500 34005KT P6SM SCT025 BKN200
     FM312100 16007KT P6SM FEW020 BKN060
     FM010000 21004KT P6SM SCT015=

Latest METAR

978
SAUS80 KWBC 311500
MTRSAV
METAR KSAV 311453Z 35007KT 10SM OVC007 25/23 A3009 RMK AO2 CIG 007V011
SLP187 T02500228 51020 $


USA.gov is the U.S. government's official web portal to all federal, state and local government web resources and services.